Time;durP1;ratioP1;P1;durP2;ratioP2;P2;SDS_P1;SDS_P2;PMS_P1;PMS_P2;Temp;Humidity;BMP_temperature;BMP_pressure;BME280_temperature;BME280_humidity;BME280_pressure;Samples;Min_cycle;Max_cycle;Signal;HPM_P1;HPM_P2
2022/03/02 00:00:45;;;;;;;14.63;6.90;;;;;;;1.55;76.87;101245.77;1745608;82;21663;-62
2022/03/02 00:03:13;;;;;;;14.33;6.90;;;;;;;1.56;76.87;101239.88;1814945;79;21254;-62
2022/03/02 00:05:42;;;;;;;14.35;7.17;;;;;;;1.56;76.86;101242.09;1745671;82;21146;-62
2022/03/02 00:08:11;;;;;;;13.13;6.35;;;;;;;1.55;76.89;101234.97;1815081;79;21594;-62
2022/03/02 00:10:40;;;;;;;16.00;7.45;;;;;;;1.56;76.86;101225.88;1815100;79;21586;-62
2022/03/02 00:13:10;;;;;;;13.90;6.95;;;;;;;1.56;76.85;101225.02;1745568;82;21123;-61
2022/03/02 00:15:57;;;;;;;14.80;6.58;;;;;;;1.53;76.83;101220.72;1814700;79;21496;-61
2022/03/02 00:18:41;;;;;;;16.15;7.47;;;;;;;1.53;76.92;101217.16;1814818;79;21586;-62
2022/03/02 00:21:25;;;;;;;13.95;7.30;;;;;;;1.53;76.96;101211.77;1814557;79;21626;-61
2022/03/02 00:24:09;;;;;;;16.48;7.30;;;;;;;1.51;76.97;101207.83;1814860;79;21126;-61
2022/03/02 00:26:54;;;;;;;15.78;7.03;;;;;;;1.51;77.03;101198.38;1815008;79;21594;-60
2022/03/02 00:29:22;;;;;;;15.88;7.40;;;;;;;1.51;77.07;101203.78;1745577;82;21220;-62
2022/03/02 00:31:52;;;;;;;13.32;6.78;;;;;;;1.51;77.01;101201.57;1814790;79;21201;-61
2022/03/02 00:34:21;;;;;;;16.95;7.85;;;;;;;1.51;77.10;101201.57;1745463;82;21547;-62
2022/03/02 00:36:51;;;;;;;15.45;6.97;;;;;;;1.50;77.16;101191.26;1814888;79;21166;-61
2022/03/02 00:39:20;;;;;;;15.70;6.85;;;;;;;1.50;77.18;101192.61;1745704;82;21573;-62
2022/03/02 00:41:51;;;;;;;19.05;7.33;;;;;;;1.48;77.23;101187.81;1815497;79;21226;-61
2022/03/02 00:44:19;;;;;;;16.37;7.70;;;;;;;1.47;77.31;101186.09;1747015;82;21596;-60
2022/03/02 00:46:49;;;;;;;15.93;7.67;;;;;;;1.46;77.33;101178.97;1816290;79;21123;-61
2022/03/02 00:49:18;;;;;;;16.50;7.12;;;;;;;1.46;77.39;101170.02;1746528;82;21151;-61
2022/03/02 00:51:48;;;;;;;17.77;7.90;;;;;;;1.47;77.49;101168.55;1814727;79;21115;-61
2022/03/02 00:54:16;;;;;;;14.90;7.03;;;;;;;1.48;77.60;101168.91;1745614;82;21127;-60
2022/03/02 00:56:46;;;;;;;17.45;7.50;;;;;;;1.49;77.68;101156.27;1814717;79;21608;-62
2022/03/02 00:59:15;;;;;;;14.85;6.72;;;;;;;1.48;77.72;101157.25;1745555;82;21107;-60
2022/03/02 01:01:44;;;;;;;18.75;7.78;;;;;;;1.49;77.70;101162.53;1814653;79;21226;-60
2022/03/02 01:04:13;;;;;;;20.40;7.35;;;;;;;1.50;77.76;101164.25;1745755;82;21716;-61
2022/03/02 01:06:43;;;;;;;17.45;8.08;;;;;;;1.52;77.81;101158.73;1814626;79;21126;-61
2022/03/02 01:09:12;;;;;;;17.00;7.22;;;;;;;1.52;77.79;101158.73;1745561;82;21134;-61
2022/03/02 01:11:42;;;;;;;16.05;7.45;;;;;;;1.52;77.86;101162.28;1814664;79;21119;-60
2022/03/02 01:14:11;;;;;;;20.02;8.10;;;;;;;1.54;77.82;101152.72;1745757;82;21123;-61
2022/03/02 01:16:41;;;;;;;17.35;7.87;;;;;;;1.53;77.89;101142.89;1814745;79;21601;-62
2022/03/02 01:19:10;;;;;;;18.82;7.37;;;;;;;1.54;78.00;101152.22;1745556;82;21631;-61
2022/03/02 01:21:39;;;;;;;19.50;8.38;;;;;;;1.55;78.07;101151.73;1814803;79;21570;-61
2022/03/02 01:24:08;;;;;;;19.90;8.58;;;;;;;1.55;78.11;101147.68;1745552;82;21644;-61
2022/03/02 01:26:37;;;;;;;23.18;9.30;;;;;;;1.53;78.10;101139.70;1814945;79;21087;-61
2022/03/02 01:29:14;;;;;;;22.37;8.78;;;;;;;1.52;78.18;101142.03;1815061;79;21585;-62
2022/03/02 01:31:43;;;;;;;24.35;9.13;;;;;;;1.54;78.27;101136.52;1745535;82;21610;-62
2022/03/02 01:34:12;;;;;;;22.07;8.53;;;;;;;1.55;78.29;101135.04;1814898;79;21166;-61
2022/03/02 01:36:41;;;;;;;21.25;8.28;;;;;;;1.55;78.39;101130.12;1814979;79;21087;-61
2022/03/02 01:39:10;;;;;;;18.85;8.88;;;;;;;1.57;78.51;101125.47;1745511;82;21575;-62
2022/03/02 01:41:39;;;;;;;21.50;8.68;;;;;;;1.57;78.53;101123.62;1814993;79;21189;-60
2022/03/02 01:44:08;;;;;;;24.18;9.10;;;;;;;1.57;78.59;101126.81;1805587;79;21112;-61
2022/03/02 01:46:37;;;;;;;24.52;9.20;;;;;;;1.55;78.66;101129.64;1798931;80;21364;-61
2022/03/02 01:49:07;;;;;;;22.13;8.83;;;;;;;1.56;78.71;101128.66;1718481;83;21567;-61
2022/03/02 01:51:37;;;;;;;22.85;8.73;;;;;;;1.55;78.77;101125.59;1798845;80;21623;-60
2022/03/02 01:54:05;;;;;;;23.38;9.55;;;;;;;1.56;78.86;101123.75;1718645;82;21242;-62
2022/03/02 01:56:34;;;;;;;24.55;10.05;;;;;;;1.56;78.90;101127.80;1798925;80;21151;-61
2022/03/02 01:59:04;;;;;;;22.77;8.65;;;;;;;1.53;78.94;101128.04;1799183;80;21500;-62
2022/03/02 02:01:33;;;;;;;24.55;9.90;;;;;;;1.49;79.03;101120.67;1799128;80;21123;-60
2022/03/02 02:04:04;;;;;;;24.30;9.08;;;;;;;1.49;79.07;101115.27;1718432;83;21585;-61
2022/03/02 02:06:34;;;;;;;21.48;9.38;;;;;;;1.49;79.19;101113.92;1799084;80;21163;-61
2022/03/02 02:09:06;;;;;;;22.07;9.03;;;;;;;1.50;79.25;101111.59;1718678;83;21163;-61
2022/03/02 02:11:37;;;;;;;30.08;10.50;;;;;;;1.50;79.35;101108.89;1798856;80;21084;-62
2022/03/02 02:14:06;;;;;;;23.70;9.95;;;;;;;1.50;79.37;101113.43;1798884;80;21151;-60
2022/03/02 02:16:35;;;;;;;24.90;9.55;;;;;;;1.47;79.43;101103.73;1718445;83;21179;-61
2022/03/02 02:19:03;;;;;;;29.50;10.75;;;;;;;1.46;79.51;101110.12;1799033;80;21079;-62
2022/03/02 02:21:33;;;;;;;23.73;9.40;;;;;;;1.47;79.65;101110.48;1798918;80;21239;-60
2022/03/02 02:24:03;;;;;;;26.52;9.95;;;;;;;1.49;79.65;101109.02;1718773;83;21139;-62
2022/03/02 02:26:31;;;;;;;26.12;10.30;;;;;;;1.47;79.61;101101.03;1798907;80;21131;-61
2022/03/02 02:29:01;;;;;;;27.13;10.30;;;;;;;1.46;79.78;101097.97;1718650;83;21202;-61
2022/03/02 02:31:32;;;;;;;25.77;10.82;;;;;;;1.47;79.89;101100.17;1799210;80;21234;-60
2022/03/02 02:34:02;;;;;;;23.47;9.70;;;;;;;1.48;79.98;101096.49;1798890;80;21103;-60
2022/03/02 02:36:31;;;;;;;25.72;10.13;;;;;;;1.47;79.99;101093.42;1718606;83;21655;-61
2022/03/02 02:39:01;;;;;;;24.85;10.15;;;;;;;1.46;80.04;101080.91;1799043;80;21452;-61
2022/03/02 02:41:32;;;;;;;25.72;10.28;;;;;;;1.45;80.03;101076.00;1799102;80;21463;-61
2022/03/02 02:44:01;;;;;;;25.90;10.60;;;;;;;1.44;80.11;101062.61;1798934;80;21031;-62
2022/03/02 02:46:31;;;;;;;23.02;9.15;;;;;;;1.43;80.20;101063.59;1798839;80;21005;-61
2022/03/02 02:49:00;;;;;;;24.92;10.40;;;;;;;1.43;80.34;101052.30;1718405;83;20992;-61
2022/03/02 02:51:29;;;;;;;25.92;10.48;;;;;;;1.44;80.39;101065.31;1798889;80;21023;-62
2022/03/02 02:53:58;;;;;;;22.37;9.50;;;;;;;1.43;80.40;101063.11;1798905;80;21000;-62
2022/03/02 02:56:28;;;;;;;27.02;9.40;;;;;;;1.42;80.51;101064.58;1718414;83;21024;-61
2022/03/02 02:58:56;;;;;;;22.62;9.45;;;;;;;1.39;80.52;101063.47;1799038;80;20992;-61
2022/03/02 03:01:26;;;;;;;23.05;9.63;;;;;;;1.40;80.62;101063.84;1718654;83;21123;-61
2022/03/02 03:03:55;;;;;;;22.98;9.80;;;;;;;1.40;80.65;101064.70;1799045;80;21048;-62
2022/03/02 03:06:24;;;;;;;23.90;10.28;;;;;;;1.42;80.68;101066.78;1718658;83;21071;-60
2022/03/02 03:08:53;;;;;;;25.25;10.15;;;;;;;1.44;80.66;101063.47;1798929;80;21231;-62
2022/03/02 03:11:22;;;;;;;22.30;9.70;;;;;;;1.44;80.68;101062.12;1798881;80;21119;-61
2022/03/02 03:13:52;;;;;;;25.05;9.63;;;;;;;1.43;80.70;101055.01;1718326;83;21079;-61
2022/03/02 03:16:21;;;;;;;23.22;9.63;;;;;;;1.45;80.74;101048.13;1798807;80;21036;-61
2022/03/02 03:18:52;;;;;;;22.70;9.33;;;;;;;1.47;80.76;101042.12;1718368;83;21032;-61
2022/03/02 03:21:21;;;;;;;24.27;9.40;;;;;;;1.44;80.71;101037.83;1798791;80;21088;-61
2022/03/02 03:23:51;;;;;;;27.35;9.93;;;;;;;1.42;80.71;101042.48;1798840;80;20980;-61
2022/03/02 03:26:22;;;;;;;24.75;9.18;;;;;;;1.40;80.80;101040.41;1718500;82;21000;-62
2022/03/02 03:28:52;;;;;;;27.02;9.83;;;;;;;1.40;80.88;101041.75;1799052;80;21021;-61
2022/03/02 03:31:22;;;;;;;27.05;10.23;;;;;;;1.38;80.88;101043.72;1718662;83;21016;-62
2022/03/02 03:33:52;;;;;;;27.65;10.53;;;;;;;1.39;80.96;101044.58;1798792;80;21004;-61
2022/03/02 03:36:21;;;;;;;23.83;10.48;;;;;;;1.38;81.04;101039.67;1798960;80;21106;-60
2022/03/02 03:38:50;;;;;;;25.68;10.40;;;;;;;1.38;81.10;101042.37;1799216;80;21047;-63
2022/03/02 03:41:19;;;;;;;21.30;9.13;;;;;;;1.36;81.15;101038.93;1799231;80;21142;-61
2022/03/02 03:43:49;;;;;;;27.00;10.32;;;;;;;1.35;81.18;101031.81;1721747;82;21068;-60
2022/03/02 03:46:18;;;;;;;26.77;10.63;;;;;;;1.33;81.21;101029.73;1806411;79;21455;-62
2022/03/02 03:48:49;;;;;;;25.75;9.80;;;;;;;1.33;81.27;101029.73;1737692;82;21130;-61
2022/03/02 03:51:19;;;;;;;25.40;9.98;;;;;;;1.34;81.38;101027.89;1806339;79;21059;-60
2022/03/02 03:53:48;;;;;;;26.30;10.08;;;;;;;1.33;81.43;101024.82;1737901;82;21051;-61
2022/03/02 03:56:19;;;;;;;27.85;10.45;;;;;;;1.32;81.55;101013.16;1806261;79;21063;-63
2022/03/02 03:58:48;;;;;;;26.57;10.63;;;;;;;1.33;81.55;101016.72;1806205;79;21061;-61
2022/03/02 04:01:21;;;;;;;32.55;10.65;;;;;;;1.33;81.66;101009.48;1737682;82;21087;-61
2022/03/02 04:03:50;;;;;;;27.37;10.50;;;;;;;1.37;81.70;101006.90;1806256;79;21016;-60
2022/03/02 04:06:22;;;;;;;26.42;10.23;;;;;;;1.37;81.68;101000.64;1737939;82;21059;-62
2022/03/02 04:08:51;;;;;;;25.95;10.30;;;;;;;1.37;81.73;100996.59;1806496;79;20984;-60
2022/03/02 04:11:20;;;;;;;24.82;10.05;;;;;;;1.36;81.70;100990.83;1806424;79;21023;-61
2022/03/02 04:13:50;;;;;;;27.62;9.95;;;;;;;1.35;81.80;100989.11;1737650;82;21460;-61
2022/03/02 04:16:21;;;;;;;25.80;10.60;;;;;;;1.36;81.91;100986.28;1806284;79;21031;-60
2022/03/02 04:18:52;;;;;;;26.73;10.58;;;;;;;1.39;81.88;100984.69;1806440;79;21094;-66
2022/03/02 04:21:22;;;;;;;25.65;9.98;;;;;;;1.39;81.83;100983.34;1806448;79;20980;-61
2022/03/02 04:23:50;;;;;;;31.85;10.80;;;;;;;1.41;81.81;100984.07;1737586;82;21155;-61
2022/03/02 04:26:20;;;;;;;28.47;10.58;;;;;;;1.40;81.82;100972.91;1806353;79;21142;-62
2022/03/02 04:28:49;;;;;;;25.85;9.73;;;;;;;1.44;81.85;100969.46;1738018;82;21071;-62
2022/03/02 04:31:19;;;;;;;24.77;9.55;;;;;;;1.43;81.80;100969.09;1806561;79;21021;-61
2022/03/02 04:33:51;;;;;;;23.65;9.83;;;;;;;1.39;81.82;100968.98;1737826;82;21024;-61
2022/03/02 04:36:20;;;;;;;23.90;10.18;;;;;;;1.35;81.82;100972.42;1806285;79;20988;-62
2022/03/02 04:38:49;;;;;;;25.60;10.50;;;;;;;1.36;81.95;100971.93;1737682;82;21130;-60
2022/03/02 04:41:18;;;;;;;26.50;9.68;;;;;;;1.37;82.03;100970.45;1806589;79;21048;-60
2022/03/02 04:43:50;;;;;;;24.10;9.23;;;;;;;1.38;82.07;100964.56;1737549;82;21024;-61
2022/03/02 04:46:19;;;;;;;28.45;10.98;;;;;;;1.37;82.07;100972.30;1806233;79;21039;-60
2022/03/02 04:48:48;;;;;;;24.35;9.78;;;;;;;1.33;82.08;100968.13;1737631;82;21127;-61
2022/03/02 04:51:18;;;;;;;26.52;10.70;;;;;;;1.31;82.15;100969.60;1806258;79;21019;-61
2022/03/02 04:53:46;;;;;;;23.42;9.05;;;;;;;1.31;82.28;100975.49;1806246;79;21031;-61
2022/03/02 04:56:16;;;;;;;27.48;10.20;;;;;;;1.32;82.39;100969.97;1737817;82;21126;-62
2022/03/02 04:58:46;;;;;;;21.35;8.85;;;;;;;1.34;82.39;100974.75;1806492;79;21518;-61
2022/03/02 05:01:15;;;;;;;28.10;10.70;;;;;;;1.33;82.38;100966.29;1737738;82;21019;-60
2022/03/02 05:03:45;;;;;;;25.92;9.75;;;;;;;1.31;82.35;100987.15;1806572;79;21035;-60
2022/03/02 05:06:14;;;;;;;26.57;9.80;;;;;;;1.30;82.44;100976.44;1737941;82;21036;-61
2022/03/02 05:08:44;;;;;;;25.95;10.53;;;;;;;1.30;82.54;100976.44;1806320;79;21039;-60
2022/03/02 05:11:15;;;;;;;25.17;10.03;;;;;;;1.31;82.60;100979.05;1737551;82;21055;-61
2022/03/02 05:13:43;;;;;;;28.23;10.45;;;;;;;1.31;82.67;100979.05;1806128;79;21040;-62
2022/03/02 05:16:13;;;;;;;26.65;10.70;;;;;;;1.32;82.76;100974.52;1737912;82;21079;-61
2022/03/02 05:18:44;;;;;;;24.12;10.25;;;;;;;1.33;82.76;100978.44;1806205;79;20996;-60
2022/03/02 05:21:15;;;;;;;28.17;10.35;;;;;;;1.33;82.80;100977.08;1737650;82;21087;-61
2022/03/02 05:23:44;;;;;;;24.92;9.73;;;;;;;1.34;82.77;100982.85;1805980;79;21522;-62
2022/03/02 05:26:13;;;;;;;23.77;9.25;;;;;;;1.33;82.70;100978.92;1737521;82;21131;-61
2022/03/02 05:28:43;;;;;;;25.25;10.50;;;;;;;1.31;82.71;100976.84;1806541;79;21070;-61
2022/03/02 05:31:13;;;;;;;25.05;10.70;;;;;;;1.31;82.82;100979.55;1768550;81;21028;-60
2022/03/02 05:33:43;;;;;;;27.48;9.98;;;;;;;1.29;82.85;100982.33;1717254;82;21138;-62
2022/03/02 05:36:13;;;;;;;28.00;10.05;;;;;;;1.26;82.89;100982.58;1806487;79;21008;-62
2022/03/02 05:38:43;;;;;;;24.80;10.03;;;;;;;1.24;82.90;100981.35;1737684;82;21171;-62
2022/03/02 05:41:14;;;;;;;22.98;9.65;;;;;;;1.26;82.99;100972.64;1748191;82;21047;-61
2022/03/02 05:43:43;;;;;;;25.23;10.25;;;;;;;1.28;83.05;100969.82;1683985;85;21040;-61
2022/03/02 05:46:14;;;;;;;25.65;10.32;;;;;;;1.29;83.00;100966.13;1729548;82;21697;-62
2022/03/02 05:48:44;;;;;;;29.07;10.80;;;;;;;1.26;82.98;100970.44;1728672;83;21087;-62
2022/03/02 05:51:14;;;;;;;23.85;9.78;;;;;;;1.24;83.08;100970.56;1728851;83;21079;-61
2022/03/02 05:54:03;;;;;;;24.87;10.23;;;;;;;1.25;83.22;100970.06;1653726;87;21158;-60
2022/03/02 05:56:32;;;;;;;24.70;9.78;;;;;;;1.25;83.28;100956.08;1728591;83;21117;-61
2022/03/02 05:59:02;;;;;;;25.60;10.98;;;;;;;1.27;83.26;100962.21;1675371;83;21051;-62
2022/03/02 06:01:32;;;;;;;24.75;9.95;;;;;;;1.26;83.29;100971.29;1782898;80;21024;-62
2022/03/02 06:04:02;;;;;;;23.40;9.90;;;;;;;1.24;83.37;100961.11;1782733;80;21162;-62
2022/03/02 06:06:35;;;;;;;29.70;10.70;;;;;;;1.21;83.41;100967.25;1783221;80;21079;-61
2022/03/02 06:09:07;;;;;;;25.00;10.10;;;;;;;1.20;83.51;100967.73;1782711;80;21031;-61
2022/03/02 06:11:43;;;;;;;26.20;9.98;;;;;;;1.22;83.57;100963.08;1782715;80;21472;-62
2022/03/02 06:14:12;;;;;;;27.60;10.55;;;;;;;1.25;83.63;100964.67;1782803;80;21016;-61
2022/03/02 06:16:47;;;;;;;28.57;10.95;;;;;;;1.26;83.57;100967.73;1782883;80;21139;-60
2022/03/02 06:19:19;;;;;;;21.95;9.65;;;;;;;1.23;83.57;100958.05;1782764;80;21001;-62
2022/03/02 06:21:49;;;;;;;26.75;9.88;;;;;;;1.22;83.64;100960.87;1782671;80;21034;-62
2022/03/02 06:24:18;;;;;;;26.50;10.13;;;;;;;1.20;83.66;100955.59;1782778;79;21020;-61
2022/03/02 06:26:48;;;;;;;23.12;9.48;;;;;;;1.21;83.76;100961.36;1782736;80;21008;-62
2022/03/02 06:29:17;;;;;;;21.57;9.65;;;;;;;1.21;83.76;100947.86;1782771;80;21052;-62
2022/03/02 06:31:47;;;;;;;20.92;9.50;;;;;;;1.20;83.79;100947.50;1782691;80;21569;-62
2022/03/02 06:34:19;;;;;;;24.47;10.28;;;;;;;1.19;83.90;100948.48;1782765;80;21028;-63
2022/03/02 06:36:51;;;;;;;25.60;10.20;;;;;;;1.21;84.00;100957.80;1782757;80;22145;-64
2022/03/02 06:39:24;;;;;;;23.47;9.55;;;;;;;1.22;84.05;100950.07;1782718;80;21056;-61
2022/03/02 06:42:11;;;;;;;20.88;9.55;;;;;;;1.21;84.06;100951.05;1782731;80;21020;-61
2022/03/02 06:44:52;;;;;;;26.60;11.10;;;;;;;1.22;84.13;100950.07;1785568;79;21078;-61
2022/03/02 06:47:44;;;;;;;23.12;9.93;;;;;;;1.23;84.29;100947.73;1798914;80;21044;-62
2022/03/02 06:50:14;;;;;;;25.08;9.50;;;;;;;1.26;84.40;100942.09;1718738;83;21139;-60
2022/03/02 06:52:55;;;;;;;25.30;9.90;;;;;;;1.26;84.52;100942.95;1798837;80;21036;-60
2022/03/02 06:55:27;;;;;;;28.80;11.40;;;;;;;1.24;84.62;100941.36;1799217;80;21020;-61
2022/03/02 06:57:59;;;;;;;24.90;10.72;;;;;;;1.24;84.74;100940.87;1798894;79;21063;-61
2022/03/02 07:00:30;;;;;;;28.85;10.82;;;;;;;1.24;84.95;100935.47;1798937;80;21023;-61
2022/03/02 07:03:06;;;;;;;26.82;11.05;;;;;;;1.26;85.16;100937.55;1799145;80;21012;-61
2022/03/02 07:05:36;;;;;;;26.23;11.25;;;;;;;1.27;85.37;100932.52;1799514;80;21016;-60
2022/03/02 07:08:05;;;;;;;30.52;12.00;;;;;;;1.31;85.62;100926.41;1799644;80;21087;-63
2022/03/02 07:10:37;;;;;;;31.73;12.07;;;;;;;1.33;85.80;100921.75;1799115;79;21055;-61
2022/03/02 07:13:09;;;;;;;27.37;11.05;;;;;;;1.33;85.99;100919.05;1718478;83;21040;-61
2022/03/02 07:15:40;;;;;;;28.20;12.45;;;;;;;1.34;86.24;100918.06;1799169;80;21494;-60
2022/03/02 07:18:11;;;;;;;27.70;10.82;;;;;;;1.38;86.48;100915.48;1798819;80;21062;-61
2022/03/02 07:20:41;;;;;;;24.10;10.95;;;;;;;1.41;86.66;100924.67;1798792;80;21119;-61
2022/03/02 07:23:20;;;;;;;25.27;10.65;;;;;;;1.41;86.82;100911.17;1799119;80;21075;-61
2022/03/02 07:25:52;;;;;;;29.75;11.68;;;;;;;1.39;86.83;100913.14;1798925;80;21143;-61
2022/03/02 07:28:24;;;;;;;28.47;11.25;;;;;;;1.36;86.88;100914.74;1799028;80;21456;-59
2022/03/02 07:30:57;;;;;;;25.48;11.18;;;;;;;1.40;87.11;100919.40;1798996;80;21150;-60
2022/03/02 07:33:30;;;;;;;28.45;11.88;;;;;;;1.44;87.21;100919.02;1798938;80;21036;-61
2022/03/02 07:36:03;;;;;;;29.05;11.33;;;;;;;1.47;87.34;100917.91;1798961;80;21051;-61
2022/03/02 07:38:37;;;;;;;28.80;11.60;;;;;;;1.47;87.36;100910.67;1718518;83;21087;-61
2022/03/02 07:41:09;;;;;;;27.77;11.03;;;;;;;1.46;87.38;100914.84;1748462;81;21079;-61
2022/03/02 07:43:53;;;;;;;25.97;11.08;;;;;;;1.45;87.45;100901.83;1799071;79;21481;-61
2022/03/02 07:46:29;;;;;;;27.65;10.75;;;;;;;1.49;87.61;100907.84;1798909;80;21047;-61
2022/03/02 07:49:02;;;;;;;27.70;11.40;;;;;;;1.51;87.68;100904.03;1718635;83;21473;-60
2022/03/02 07:51:35;;;;;;;21.60;9.58;;;;;;;1.53;87.81;100908.81;1799190;79;21012;-61
2022/03/02 07:54:11;;;;;;;27.00;10.60;;;;;;;1.56;87.85;100903.64;1799017;80;21028;-61
2022/03/02 07:56:41;;;;;;;27.60;10.38;;;;;;;1.52;87.70;100907.09;1718729;83;21067;-61
2022/03/02 07:59:14;;;;;;;31.17;11.30;;;;;;;1.53;87.83;100902.05;1723205;80;21026;-60
2022/03/02 08:01:46;;;;;;;29.32;11.78;;;;;;;1.56;87.86;100903.64;1718504;83;21075;-62
2022/03/02 08:04:17;;;;;;;26.50;11.12;;;;;;;1.59;87.99;100898.84;1798904;80;21044;-60
2022/03/02 08:06:49;;;;;;;27.85;12.13;;;;;;;1.64;88.09;100900.30;1714639;82;21047;-61
2022/03/02 08:09:21;;;;;;;28.10;11.53;;;;;;;1.67;88.21;100888.75;1799362;80;21182;-62
2022/03/02 08:12:07;;;;;;;25.92;10.53;;;;;;;1.73;88.24;100884.67;1717958;83;21024;-63
2022/03/02 08:14:43;;;;;;;28.95;11.05;;;;;;;1.76;88.28;100887.11;1799080;79;21514;-62
2022/03/02 08:17:20;;;;;;;23.65;10.00;;;;;;;1.81;88.38;100883.53;1730262;82;21505;-62
2022/03/02 08:19:54;;;;;;;24.12;10.05;;;;;;;1.84;88.40;100873.81;1798914;80;21063;-60
2022/03/02 08:22:36;;;;;;;30.62;11.22;;;;;;;1.83;88.33;100882.91;1718480;83;20996;-62
2022/03/02 08:25:11;;;;;;;29.42;11.55;;;;;;;1.84;88.38;100873.81;1799035;80;20996;-61
2022/03/02 08:27:43;;;;;;;26.52;10.80;;;;;;;1.86;88.41;100868.65;1798274;80;21149;-60
2022/03/02 08:30:21;;;;;;;25.80;9.85;;;;;;;1.88;88.42;100865.81;1699855;83;21060;-61
2022/03/02 08:32:52;;;;;;;27.42;10.25;;;;;;;1.93;88.47;100872.18;1799045;80;21028;-61
2022/03/02 08:35:38;;;;;;;26.40;10.23;;;;;;;1.98;88.53;100864.56;1658138;83;21142;-62
2022/03/02 08:38:16;;;;;;;28.95;9.90;;;;;;;2.02;88.59;100863.31;1798886;80;21055;-61
2022/03/02 08:40:46;;;;;;;22.80;9.43;;;;;;;2.06;88.60;100856.66;1798865;80;21472;-63
2022/03/02 08:43:16;;;;;;;25.23;10.15;;;;;;;2.07;88.54;100856.53;1718677;83;21095;-60
2022/03/02 08:45:52;;;;;;;24.35;9.75;;;;;;;2.11;88.60;100851.22;1801232;79;21051;-63
2022/03/02 08:48:23;;;;;;;22.95;9.45;;;;;;;2.15;88.64;100845.91;1806428;79;21486;-62
2022/03/02 08:51:00;;;;;;;24.27;9.13;;;;;;;2.17;88.47;100849.34;1716690;82;21055;-62
2022/03/02 08:53:36;;;;;;;25.70;9.55;;;;;;;2.16;88.37;100842.71;1806411;79;21465;-62
2022/03/02 08:56:08;;;;;;;20.43;8.83;;;;;;;2.18;88.42;100846.14;1737579;82;21036;-61
2022/03/02 08:58:39;;;;;;;24.27;9.33;;;;;;;2.22;88.44;100841.69;1806105;79;21024;-62
2022/03/02 09:01:18;;;;;;;24.18;9.35;;;;;;;2.28;88.45;100841.64;1785101;79;21005;-63
2022/03/02 09:04:19;;;;;;;24.05;10.03;;;;;;;2.34;88.40;100837.55;1736876;82;21107;-62
2022/03/02 09:06:54;;;;;;;25.48;9.48;;;;;;;2.37;88.40;100834.08;1785140;79;21142;-63
2022/03/02 09:09:25;;;;;;;25.62;9.78;;;;;;;2.41;88.43;100828.77;1694773;82;21522;-63
2022/03/02 09:12:10;;;;;;;18.82;8.43;;;;;;;2.45;88.30;100826.64;1805974;79;21059;-64
2022/03/02 09:14:54;;;;;;;21.82;9.25;;;;;;;2.49;88.32;100824.03;1737497;82;21135;-62
2022/03/02 09:17:27;;;;;;;22.65;9.40;;;;;;;2.57;88.38;100818.80;1806370;79;21078;-62
2022/03/02 09:20:03;;;;;;;19.95;8.55;;;;;;;2.58;88.25;100824.56;1737764;82;21060;-61
2022/03/02 09:22:34;;;;;;;20.45;8.33;;;;;;;2.63;88.22;100826.41;1806512;79;21547;-62
2022/03/02 09:25:14;;;;;;;23.22;8.68;;;;;;;2.61;87.75;100825.68;1674481;82;21138;-61
2022/03/02 09:28:02;;;;;;;20.55;8.23;;;;;;;2.58;87.57;100819.66;1806456;79;21039;-61
2022/03/02 09:30:33;;;;;;;20.70;8.43;;;;;;;2.55;87.41;100815.38;1737643;82;21090;-63
2022/03/02 09:33:03;;;;;;;20.43;8.13;;;;;;;2.57;87.48;100819.30;1806261;79;20980;-62
2022/03/02 09:35:40;;;;;;;24.37;9.33;;;;;;;2.61;87.55;100813.51;1737603;82;21146;-61
2022/03/02 09:38:11;;;;;;;17.60;8.35;;;;;;;2.63;87.50;100817.42;1806125;79;20988;-59
2022/03/02 09:40:44;;;;;;;21.62;8.95;;;;;;;2.66;87.51;100811.25;1737646;82;21531;-60
2022/03/02 09:43:29;;;;;;;21.40;8.30;;;;;;;2.69;87.44;100807.41;1806075;79;21181;-62
2022/03/02 09:46:11;;;;;;;17.40;7.70;;;;;;;2.68;87.29;100801.64;1737214;82;21175;-62
2022/03/02 09:48:49;;;;;;;18.52;7.90;;;;;;;2.64;87.12;100792.95;1805263;79;21055;-61
2022/03/02 09:51:23;;;;;;;19.85;7.87;;;;;;;2.61;87.14;100797.28;1737652;82;21048;-62
2022/03/02 09:53:58;;;;;;;19.52;7.28;;;;;;;2.61;87.16;100791.87;1806326;79;21090;-62
2022/03/02 09:56:32;;;;;;;14.05;5.78;;;;;;;2.63;87.19;100795.30;1737718;82;21059;-62
2022/03/02 09:59:07;;;;;;;15.40;6.83;;;;;;;2.59;86.95;100787.06;1806196;79;21015;-63
2022/03/02 10:01:40;;;;;;;19.65;7.80;;;;;;;2.53;86.81;100788.95;1737590;82;21048;-61
2022/03/02 10:04:21;;;;;;;17.32;7.10;;;;;;;2.47;86.69;100781.39;1806555;79;21031;-62
2022/03/02 10:09:49;;;;;;;16.93;7.00;;;;;;;2.51;86.93;100774.72;1806148;79;20976;-62
2022/03/02 10:12:20;;;;;;;17.92;7.33;;;;;;;2.54;87.08;100774.44;1737861;82;21051;-61
2022/03/02 10:14:53;;;;;;;20.27;8.68;;;;;;;2.57;87.15;100769.25;1806237;79;20992;-60
2022/03/02 10:17:25;;;;;;;18.07;7.40;;;;;;;2.62;87.38;100765.17;1806416;79;21043;-61
2022/03/02 10:19:57;;;;;;;18.07;6.75;;;;;;;2.67;87.46;100756.15;1737695;82;21028;-63
2022/03/02 10:23:08;;;;;;;18.15;7.05;;;;;;;2.74;87.62;100759.16;1806244;79;21047;-61
2022/03/02 10:26:17;;;;;;;20.02;7.40;;;;;;;2.76;87.51;100752.61;1737505;82;21024;-62
2022/03/02 10:29:05;;;;;;;15.65;6.55;;;;;;;2.82;87.62;100745.78;1806414;79;21062;-62
2022/03/02 10:31:45;;;;;;;15.45;6.53;;;;;;;2.90;87.71;100740.53;1737657;82;21087;-63
2022/03/02 10:34:23;;;;;;;16.20;6.78;;;;;;;2.88;87.55;100739.81;1806339;79;21059;-62
2022/03/02 10:37:29;;;;;;;17.27;7.12;;;;;;;2.85;87.30;100738.24;1806531;79;21146;-61
2022/03/02 10:40:16;;;;;;;14.38;6.37;;;;;;;2.86;87.39;100733.69;1685192;85;21118;-62
2022/03/02 10:42:58;;;;;;;16.00;6.20;;;;;;;2.88;87.46;100730.34;1625266;88;21158;-60
2022/03/02 10:45:49;;;;;;;14.58;6.53;;;;;;;2.91;87.50;100724.65;1684356;85;21507;-60
2022/03/02 10:48:46;;;;;;;16.73;6.90;;;;;;;2.91;87.47;100719.73;1625426;88;21110;-62
2022/03/02 10:51:23;;;;;;;13.98;6.58;;;;;;;2.90;87.46;100725.64;1685092;85;21499;-60
2022/03/02 10:53:53;;;;;;;15.85;5.85;;;;;;;2.90;87.43;100723.44;1685084;85;21125;-60
2022/03/02 10:56:27;;;;;;;12.82;5.58;;;;;;;2.89;87.31;100713.61;1663114;85;21124;-61
2022/03/02 10:58:59;;;;;;;15.95;5.90;;;;;;;2.88;87.18;100710.55;1684985;85;21622;-59
2022/03/02 11:01:31;;;;;;;15.00;5.85;;;;;;;2.81;86.99;100708.41;1685111;85;21106;-61
2022/03/02 11:04:06;;;;;;;14.28;5.75;;;;;;;2.77;87.07;100702.91;1685318;85;21158;-61
2022/03/02 11:06:38;;;;;;;12.70;5.75;;;;;;;2.77;87.16;100702.05;1625241;88;21075;-60
2022/03/02 11:09:12;;;;;;;15.28;6.08;;;;;;;2.83;87.37;100703.70;1684914;85;21525;-60
2022/03/02 11:11:46;;;;;;;15.32;5.90;;;;;;;2.88;87.39;100695.66;1685076;85;21062;-60
2022/03/02 11:14:19;;;;;;;14.43;6.37;;;;;;;2.92;87.50;100697.09;1685117;85;21055;-60
2022/03/02 11:16:50;;;;;;;11.73;5.30;;;;;;;2.96;87.61;100695.81;1711082;79;21052;-60
2022/03/02 11:19:26;;;;;;;14.07;6.15;;;;;;;2.94;87.41;100695.09;1737628;82;21039;-60
2022/03/02 11:22:00;;;;;;;11.18;5.22;;;;;;;2.91;87.43;100687.26;1806294;79;21024;-60
2022/03/02 11:24:32;;;;;;;13.90;5.85;;;;;;;2.94;87.67;100688.33;1783918;79;21075;-62
2022/03/02 11:27:04;;;;;;;12.78;5.20;;;;;;;2.96;87.70;100680.42;1717529;82;21530;-61
2022/03/02 11:29:41;;;;;;;12.82;5.67;;;;;;;2.97;87.67;100672.66;1806360;79;21011;-62
2022/03/02 11:32:15;;;;;;;12.33;5.10;;;;;;;2.96;87.67;100672.30;1737939;82;21376;-60
2022/03/02 11:35:03;;;;;;;13.28;5.58;;;;;;;3.01;87.88;100663.26;1783371;79;21046;-61
2022/03/02 11:37:38;;;;;;;13.28;5.67;;;;;;;3.05;87.95;100663.33;1737602;82;21024;-61
2022/03/02 11:40:12;;;;;;;16.55;6.20;;;;;;;3.07;87.98;100660.48;1806392;79;21012;-61
2022/03/02 11:42:47;;;;;;;12.47;5.40;;;;;;;3.12;88.14;100659.55;1716467;82;21008;-60
2022/03/02 11:45:17;;;;;;;12.13;5.33;;;;;;;3.15;88.21;100666.03;1806213;79;21016;-60
2022/03/02 11:47:55;;;;;;;9.70;5.28;;;;;;;3.18;88.24;100663.03;1743917;82;21487;-61
2022/03/02 11:50:24;;;;;;;12.70;5.80;;;;;;;3.22;88.29;100652.77;1814758;79;21027;-60